sensor_id;sensor_type;location;lat;lon;timestamp;P1;durP1;ratioP1;P2;durP2;ratioP2
72728;SDS011;60843;52.062;4.508;2022-07-23T00:00:51;7.20;;;2.10;;
72728;SDS011;60843;52.062;4.508;2022-07-23T00:03:16;4.38;;;2.00;;
72728;SDS011;60843;52.062;4.508;2022-07-23T00:05:42;6.03;;;2.67;;
72728;SDS011;60843;52.062;4.508;2022-07-23T00:08:07;10.10;;;3.10;;
72728;SDS011;60843;52.062;4.508;2022-07-23T00:10:33;4.65;;;2.20;;
72728;SDS011;60843;52.062;4.508;2022-07-23T00:12:59;3.00;;;2.03;;
72728;SDS011;60843;52.062;4.508;2022-07-23T00:15:24;5.45;;;2.30;;
72728;SDS011;60843;52.062;4.508;2022-07-23T00:17:50;5.47;;;2.30;;
72728;SDS011;60843;52.062;4.508;2022-07-23T00:20:15;4.55;;;2.20;;
72728;SDS011;60843;52.062;4.508;2022-07-23T00:25:13;4.68;;;2.67;;
72728;SDS011;60843;52.062;4.508;2022-07-23T00:27:38;5.30;;;2.60;;
72728;SDS011;60843;52.062;4.508;2022-07-23T00:30:04;5.32;;;2.70;;
72728;SDS011;60843;52.062;4.508;2022-07-23T00:32:30;4.22;;;2.30;;
72728;SDS011;60843;52.062;4.508;2022-07-23T00:34:55;4.93;;;2.47;;
72728;SDS011;60843;52.062;4.508;2022-07-23T00:37:20;5.37;;;2.40;;
72728;SDS011;60843;52.062;4.508;2022-07-23T00:39:46;4.28;;;2.05;;
72728;SDS011;60843;52.062;4.508;2022-07-23T00:42:11;6.38;;;2.22;;
72728;SDS011;60843;52.062;4.508;2022-07-23T00:44:37;4.35;;;2.30;;
72728;SDS011;60843;52.062;4.508;2022-07-23T00:47:02;4.32;;;2.35;;
72728;SDS011;60843;52.062;4.508;2022-07-23T00:49:29;4.78;;;2.30;;
72728;SDS011;60843;52.062;4.508;2022-07-23T00:51:56;5.90;;;1.95;;
72728;SDS011;60843;52.062;4.508;2022-07-23T00:54:25;3.40;;;2.08;;
72728;SDS011;60843;52.062;4.508;2022-07-23T00:56:52;4.55;;;1.88;;
72728;SDS011;60843;52.062;4.508;2022-07-23T00:59:18;5.20;;;2.13;;
72728;SDS011;60843;52.062;4.508;2022-07-23T01:01:43;3.10;;;2.33;;
72728;SDS011;60843;52.062;4.508;2022-07-23T01:04:10;3.90;;;2.25;;
72728;SDS011;60843;52.062;4.508;2022-07-23T01:06:36;3.63;;;2.20;;
72728;SDS011;60843;52.062;4.508;2022-07-23T01:09:06;5.85;;;2.45;;
72728;SDS011;60843;52.062;4.508;2022-07-23T01:11:35;9.13;;;2.90;;
72728;SDS011;60843;52.062;4.508;2022-07-23T01:14:12;8.10;;;3.03;;
72728;SDS011;60843;52.062;4.508;2022-07-23T01:16:41;5.85;;;2.58;;
72728;SDS011;60843;52.062;4.508;2022-07-23T01:19:08;5.72;;;3.42;;
72728;SDS011;60843;52.062;4.508;2022-07-23T01:21:35;4.63;;;2.30;;
72728;SDS011;60843;52.062;4.508;2022-07-23T01:24:04;5.53;;;2.40;;
72728;SDS011;60843;52.062;4.508;2022-07-23T01:26:30;5.20;;;2.58;;
72728;SDS011;60843;52.062;4.508;2022-07-23T01:28:56;8.30;;;2.22;;
72728;SDS011;60843;52.062;4.508;2022-07-23T01:31:22;12.45;;;2.65;;
72728;SDS011;60843;52.062;4.508;2022-07-23T01:33:48;4.57;;;2.70;;
72728;SDS011;60843;52.062;4.508;2022-07-23T01:36:14;4.82;;;2.47;;
72728;SDS011;60843;52.062;4.508;2022-07-23T01:38:39;4.40;;;2.50;;
72728;SDS011;60843;52.062;4.508;2022-07-23T01:41:05;3.88;;;2.40;;
72728;SDS011;60843;52.062;4.508;2022-07-23T01:43:30;5.13;;;3.03;;
72728;SDS011;60843;52.062;4.508;2022-07-23T01:45:56;7.03;;;3.00;;
72728;SDS011;60843;52.062;4.508;2022-07-23T01:48:21;6.07;;;2.77;;
72728;SDS011;60843;52.062;4.508;2022-07-23T01:50:47;5.53;;;2.58;;
72728;SDS011;60843;52.062;4.508;2022-07-23T01:53:13;8.32;;;3.28;;
72728;SDS011;60843;52.062;4.508;2022-07-23T01:55:39;5.93;;;2.78;;
72728;SDS011;60843;52.062;4.508;2022-07-23T01:58:04;7.18;;;3.15;;
72728;SDS011;60843;52.062;4.508;2022-07-23T02:00:30;4.25;;;2.75;;
72728;SDS011;60843;52.062;4.508;2022-07-23T02:02:56;4.00;;;2.65;;
72728;SDS011;60843;52.062;4.508;2022-07-23T02:05:23;8.32;;;3.25;;
72728;SDS011;60843;52.062;4.508;2022-07-23T02:10:19;6.03;;;3.40;;
72728;SDS011;60843;52.062;4.508;2022-07-23T02:12:45;5.68;;;3.13;;
72728;SDS011;60843;52.062;4.508;2022-07-23T02:15:11;5.22;;;3.05;;
72728;SDS011;60843;52.062;4.508;2022-07-23T02:17:36;5.10;;;2.95;;
72728;SDS011;60843;52.062;4.508;2022-07-23T02:20:02;8.35;;;2.72;;
72728;SDS011;60843;52.062;4.508;2022-07-23T02:22:28;6.72;;;3.10;;
72728;SDS011;60843;52.062;4.508;2022-07-23T02:24:53;8.07;;;3.20;;
72728;SDS011;60843;52.062;4.508;2022-07-23T02:27:19;6.07;;;3.03;;
72728;SDS011;60843;52.062;4.508;2022-07-23T02:29:44;5.97;;;3.35;;
72728;SDS011;60843;52.062;4.508;2022-07-23T02:32:10;9.93;;;3.15;;
72728;SDS011;60843;52.062;4.508;2022-07-23T02:34:36;8.70;;;3.45;;
72728;SDS011;60843;52.062;4.508;2022-07-23T02:37:01;7.28;;;3.08;;
72728;SDS011;60843;52.062;4.508;2022-07-23T02:39:27;6.43;;;2.85;;
72728;SDS011;60843;52.062;4.508;2022-07-23T02:41:53;4.03;;;2.97;;
72728;SDS011;60843;52.062;4.508;2022-07-23T02:44:18;8.73;;;2.90;;
72728;SDS011;60843;52.062;4.508;2022-07-23T02:46:44;4.90;;;3.13;;
72728;SDS011;60843;52.062;4.508;2022-07-23T02:49:09;4.38;;;2.90;;
72728;SDS011;60843;52.062;4.508;2022-07-23T02:51:34;8.68;;;3.22;;
72728;SDS011;60843;52.062;4.508;2022-07-23T02:54:00;4.40;;;2.43;;
72728;SDS011;60843;52.062;4.508;2022-07-23T02:56:25;3.75;;;2.60;;
72728;SDS011;60843;52.062;4.508;2022-07-23T02:58:51;6.38;;;2.80;;
72728;SDS011;60843;52.062;4.508;2022-07-23T03:01:16;5.85;;;2.70;;
72728;SDS011;60843;52.062;4.508;2022-07-23T03:03:42;7.95;;;3.05;;
72728;SDS011;60843;52.062;4.508;2022-07-23T03:06:07;7.57;;;3.10;;
72728;SDS011;60843;52.062;4.508;2022-07-23T03:08:32;8.57;;;2.88;;
72728;SDS011;60843;52.062;4.508;2022-07-23T03:10:58;7.82;;;2.92;;
72728;SDS011;60843;52.062;4.508;2022-07-23T03:13:23;7.10;;;3.20;;
72728;SDS011;60843;52.062;4.508;2022-07-23T03:15:49;5.65;;;3.22;;
72728;SDS011;60843;52.062;4.508;2022-07-23T03:18:14;7.43;;;3.05;;
72728;SDS011;60843;52.062;4.508;2022-07-23T03:20:40;8.00;;;3.50;;
72728;SDS011;60843;52.062;4.508;2022-07-23T03:23:05;7.07;;;3.70;;
72728;SDS011;60843;52.062;4.508;2022-07-23T03:25:31;7.43;;;3.28;;
72728;SDS011;60843;52.062;4.508;2022-07-23T03:27:56;9.02;;;3.40;;
72728;SDS011;60843;52.062;4.508;2022-07-23T03:30:22;5.88;;;3.33;;
72728;SDS011;60843;52.062;4.508;2022-07-23T03:32:47;6.20;;;3.22;;
72728;SDS011;60843;52.062;4.508;2022-07-23T03:35:13;6.40;;;3.60;;
72728;SDS011;60843;52.062;4.508;2022-07-23T03:37:38;8.13;;;3.55;;
72728;SDS011;60843;52.062;4.508;2022-07-23T03:40:04;6.38;;;3.78;;
72728;SDS011;60843;52.062;4.508;2022-07-23T03:42:30;6.72;;;3.75;;
72728;SDS011;60843;52.062;4.508;2022-07-23T03:44:56;5.32;;;3.30;;
72728;SDS011;60843;52.062;4.508;2022-07-23T03:47:21;9.00;;;3.40;;
72728;SDS011;60843;52.062;4.508;2022-07-23T03:49:47;7.88;;;3.40;;
72728;SDS011;60843;52.062;4.508;2022-07-23T03:52:13;7.28;;;3.38;;
72728;SDS011;60843;52.062;4.508;2022-07-23T03:54:39;10.88;;;3.63;;
72728;SDS011;60843;52.062;4.508;2022-07-23T03:57:04;6.57;;;3.72;;
72728;SDS011;60843;52.062;4.508;2022-07-23T03:59:30;7.30;;;3.22;;
72728;SDS011;60843;52.062;4.508;2022-07-23T04:01:55;7.82;;;3.42;;
72728;SDS011;60843;52.062;4.508;2022-07-23T04:04:21;6.50;;;3.30;;
72728;SDS011;60843;52.062;4.508;2022-07-23T04:06:46;7.20;;;3.80;;
72728;SDS011;60843;52.062;4.508;2022-07-23T04:09:12;7.50;;;3.53;;
72728;SDS011;60843;52.062;4.508;2022-07-23T04:11:38;8.20;;;3.75;;
72728;SDS011;60843;52.062;4.508;2022-07-23T04:14:03;5.70;;;3.85;;
72728;SDS011;60843;52.062;4.508;2022-07-23T04:16:29;5.75;;;3.28;;
72728;SDS011;60843;52.062;4.508;2022-07-23T04:18:56;7.78;;;3.58;;
72728;SDS011;60843;52.062;4.508;2022-07-23T04:21:22;8.55;;;3.70;;
72728;SDS011;60843;52.062;4.508;2022-07-23T04:23:48;6.78;;;3.85;;
72728;SDS011;60843;52.062;4.508;2022-07-23T04:26:14;6.65;;;3.75;;
72728;SDS011;60843;52.062;4.508;2022-07-23T04:28:40;8.52;;;3.72;;
72728;SDS011;60843;52.062;4.508;2022-07-23T04:31:06;5.82;;;3.40;;
72728;SDS011;60843;52.062;4.508;2022-07-23T04:33:31;6.60;;;3.00;;
72728;SDS011;60843;52.062;4.508;2022-07-23T04:35:57;7.55;;;3.72;;
72728;SDS011;60843;52.062;4.508;2022-07-23T04:38:22;7.15;;;3.40;;
72728;SDS011;60843;52.062;4.508;2022-07-23T04:40:48;7.90;;;3.50;;
72728;SDS011;60843;52.062;4.508;2022-07-23T04:43:14;6.95;;;3.47;;
72728;SDS011;60843;52.062;4.508;2022-07-23T04:45:39;8.68;;;3.30;;
72728;SDS011;60843;52.062;4.508;2022-07-23T04:48:04;5.85;;;3.75;;
72728;SDS011;60843;52.062;4.508;2022-07-23T04:50:30;8.48;;;3.50;;
72728;SDS011;60843;52.062;4.508;2022-07-23T04:52:56;5.25;;;3.47;;
72728;SDS011;60843;52.062;4.508;2022-07-23T04:55:21;6.83;;;3.50;;
72728;SDS011;60843;52.062;4.508;2022-07-23T04:57:46;7.20;;;3.33;;
72728;SDS011;60843;52.062;4.508;2022-07-23T05:00:12;7.47;;;3.47;;
72728;SDS011;60843;52.062;4.508;2022-07-23T05:02:38;8.38;;;3.55;;
72728;SDS011;60843;52.062;4.508;2022-07-23T05:05:03;11.68;;;3.58;;
72728;SDS011;60843;52.062;4.508;2022-07-23T05:07:32;5.82;;;3.50;;
72728;SDS011;60843;52.062;4.508;2022-07-23T05:09:57;8.88;;;3.53;;
72728;SDS011;60843;52.062;4.508;2022-07-23T05:12:23;7.20;;;3.30;;
72728;SDS011;60843;52.062;4.508;2022-07-23T05:14:48;7.25;;;3.38;;
72728;SDS011;60843;52.062;4.508;2022-07-23T05:17:14;6.60;;;3.88;;
72728;SDS011;60843;52.062;4.508;2022-07-23T05:19:39;5.22;;;3.35;;
72728;SDS011;60843;52.062;4.508;2022-07-23T05:22:06;7.18;;;3.55;;
72728;SDS011;60843;52.062;4.508;2022-07-23T05:24:31;8.47;;;3.40;;
72728;SDS011;60843;52.062;4.508;2022-07-23T05:26:56;7.60;;;3.67;;
72728;SDS011;60843;52.062;4.508;2022-07-23T05:29:22;6.33;;;3.53;;
72728;SDS011;60843;52.062;4.508;2022-07-23T05:31:47;6.32;;;3.33;;
72728;SDS011;60843;52.062;4.508;2022-07-23T05:34:13;6.47;;;3.20;;
72728;SDS011;60843;52.062;4.508;2022-07-23T05:36:38;8.57;;;3.33;;
72728;SDS011;60843;52.062;4.508;2022-07-23T05:39:04;7.65;;;3.53;;
72728;SDS011;60843;52.062;4.508;2022-07-23T05:41:29;6.10;;;3.70;;
72728;SDS011;60843;52.062;4.508;2022-07-23T05:43:55;8.48;;;3.05;;
72728;SDS011;60843;52.062;4.508;2022-07-23T05:46:20;7.28;;;3.50;;
72728;SDS011;60843;52.062;4.508;2022-07-23T05:48:46;5.18;;;3.10;;
72728;SDS011;60843;52.062;4.508;2022-07-23T05:51:18;8.45;;;2.95;;
72728;SDS011;60843;52.062;4.508;2022-07-23T05:53:45;6.35;;;2.17;;
72728;SDS011;60843;52.062;4.508;2022-07-23T05:56:10;5.73;;;2.40;;
72728;SDS011;60843;52.062;4.508;2022-07-23T05:58:35;6.93;;;2.50;;
72728;SDS011;60843;52.062;4.508;2022-07-23T06:01:01;3.85;;;2.22;;
72728;SDS011;60843;52.062;4.508;2022-07-23T06:03:26;5.43;;;2.22;;
72728;SDS011;60843;52.062;4.508;2022-07-23T06:05:52;2.47;;;1.70;;
72728;SDS011;60843;52.062;4.508;2022-07-23T06:08:17;4.78;;;1.52;;
72728;SDS011;60843;52.062;4.508;2022-07-23T06:10:43;4.72;;;1.98;;
72728;SDS011;60843;52.062;4.508;2022-07-23T06:13:08;3.13;;;2.03;;
72728;SDS011;60843;52.062;4.508;2022-07-23T06:15:33;7.43;;;2.07;;
72728;SDS011;60843;52.062;4.508;2022-07-23T06:17:59;3.88;;;2.05;;
72728;SDS011;60843;52.062;4.508;2022-07-23T06:20:24;3.87;;;1.30;;
72728;SDS011;60843;52.062;4.508;2022-07-23T06:22:50;5.57;;;1.60;;
72728;SDS011;60843;52.062;4.508;2022-07-23T06:25:15;2.17;;;1.50;;
72728;SDS011;60843;52.062;4.508;2022-07-23T06:27:41;3.08;;;1.23;;
72728;SDS011;60843;52.062;4.508;2022-07-23T06:30:07;3.33;;;1.23;;
72728;SDS011;60843;52.062;4.508;2022-07-23T06:32:35;9.27;;;1.35;;
72728;SDS011;60843;52.062;4.508;2022-07-23T06:35:00;3.45;;;1.02;;
72728;SDS011;60843;52.062;4.508;2022-07-23T06:37:26;6.38;;;1.00;;
72728;SDS011;60843;52.062;4.508;2022-07-23T06:39:52;3.72;;;0.82;;
72728;SDS011;60843;52.062;4.508;2022-07-23T06:42:17;1.70;;;0.80;;
72728;SDS011;60843;52.062;4.508;2022-07-23T06:44:42;3.50;;;1.00;;
72728;SDS011;60843;52.062;4.508;2022-07-23T06:47:08;2.85;;;0.90;;
72728;SDS011;60843;52.062;4.508;2022-07-23T06:49:34;3.95;;;1.10;;
72728;SDS011;60843;52.062;4.508;2022-07-23T06:51:59;2.25;;;0.93;;
72728;SDS011;60843;52.062;4.508;2022-07-23T06:54:25;7.97;;;1.30;;
72728;SDS011;60843;52.062;4.508;2022-07-23T06:56:51;6.50;;;1.27;;
72728;SDS011;60843;52.062;4.508;2022-07-23T06:59:16;2.22;;;1.00;;
72728;SDS011;60843;52.062;4.508;2022-07-23T07:01:42;2.58;;;1.00;;
72728;SDS011;60843;52.062;4.508;2022-07-23T07:04:07;4.00;;;1.10;;
72728;SDS011;60843;52.062;4.508;2022-07-23T07:06:33;4.03;;;1.00;;
72728;SDS011;60843;52.062;4.508;2022-07-23T07:08:59;2.63;;;1.00;;
72728;SDS011;60843;52.062;4.508;2022-07-23T07:11:24;3.60;;;1.10;;
72728;SDS011;60843;52.062;4.508;2022-07-23T07:13:50;2.17;;;0.95;;
72728;SDS011;60843;52.062;4.508;2022-07-23T07:16:16;3.38;;;0.98;;
72728;SDS011;60843;52.062;4.508;2022-07-23T07:18:42;3.53;;;1.08;;
72728;SDS011;60843;52.062;4.508;2022-07-23T07:21:08;3.35;;;1.10;;
72728;SDS011;60843;52.062;4.508;2022-07-23T07:23:33;5.55;;;1.30;;
72728;SDS011;60843;52.062;4.508;2022-07-23T07:26:02;4.18;;;1.00;;
72728;SDS011;60843;52.062;4.508;2022-07-23T07:28:29;3.75;;;1.50;;
72728;SDS011;60843;52.062;4.508;2022-07-23T07:31:01;4.30;;;1.50;;
72728;SDS011;60843;52.062;4.508;2022-07-23T07:34:03;5.18;;;1.50;;
72728;SDS011;60843;52.062;4.508;2022-07-23T07:36:29;5.32;;;1.13;;
72728;SDS011;60843;52.062;4.508;2022-07-23T07:38:54;5.13;;;1.33;;
72728;SDS011;60843;52.062;4.508;2022-07-23T07:41:20;2.28;;;1.20;;
72728;SDS011;60843;52.062;4.508;2022-07-23T07:43:48;5.07;;;1.10;;
72728;SDS011;60843;52.062;4.508;2022-07-23T07:46:15;4.20;;;1.20;;
72728;SDS011;60843;52.062;4.508;2022-07-23T07:48:40;3.90;;;1.00;;
72728;SDS011;60843;52.062;4.508;2022-07-23T07:51:05;4.85;;;1.33;;
72728;SDS011;60843;52.062;4.508;2022-07-23T07:53:31;3.05;;;1.15;;
72728;SDS011;60843;52.062;4.508;2022-07-23T07:55:57;2.58;;;1.35;;
72728;SDS011;60843;52.062;4.508;2022-07-23T07:58:23;5.68;;;1.20;;
72728;SDS011;60843;52.062;4.508;2022-07-23T08:00:48;3.67;;;1.25;;
72728;SDS011;60843;52.062;4.508;2022-07-23T08:03:14;4.00;;;1.23;;
72728;SDS011;60843;52.062;4.508;2022-07-23T08:05:39;2.00;;;1.20;;
72728;SDS011;60843;52.062;4.508;2022-07-23T08:08:05;4.20;;;1.38;;
72728;SDS011;60843;52.062;4.508;2022-07-23T08:10:30;3.42;;;1.50;;
72728;SDS011;60843;52.062;4.508;2022-07-23T08:12:57;4.65;;;1.50;;
72728;SDS011;60843;52.062;4.508;2022-07-23T08:15:24;2.85;;;1.50;;
72728;SDS011;60843;52.062;4.508;2022-07-23T08:17:50;5.72;;;1.67;;
72728;SDS011;60843;52.062;4.508;2022-07-23T08:20:20;2.03;;;1.23;;
72728;SDS011;60843;52.062;4.508;2022-07-23T08:22:50;4.85;;;1.45;;
72728;SDS011;60843;52.062;4.508;2022-07-23T08:25:26;4.57;;;1.33;;
72728;SDS011;60843;52.062;4.508;2022-07-23T08:27:53;4.78;;;1.50;;
72728;SDS011;60843;52.062;4.508;2022-07-23T08:30:19;3.22;;;1.50;;
72728;SDS011;60843;52.062;4.508;2022-07-23T08:33:05;6.25;;;1.45;;
72728;SDS011;60843;52.062;4.508;2022-07-23T08:38:00;2.95;;;1.30;;
72728;SDS011;60843;52.062;4.508;2022-07-23T08:40:27;3.28;;;1.50;;
72728;SDS011;60843;52.062;4.508;2022-07-23T08:42:55;3.00;;;1.55;;
72728;SDS011;60843;52.062;4.508;2022-07-23T08:45:22;3.55;;;1.50;;
72728;SDS011;60843;52.062;4.508;2022-07-23T08:47:53;4.50;;;1.38;;
72728;SDS011;60843;52.062;4.508;2022-07-23T08:50:20;4.43;;;1.40;;
72728;SDS011;60843;52.062;4.508;2022-07-23T08:52:47;4.35;;;1.60;;
72728;SDS011;60843;52.062;4.508;2022-07-23T08:55:15;2.90;;;1.40;;
72728;SDS011;60843;52.062;4.508;2022-07-23T09:00:07;4.50;;;1.53;;
72728;SDS011;60843;52.062;4.508;2022-07-23T09:02:40;3.47;;;1.40;;
72728;SDS011;60843;52.062;4.508;2022-07-23T09:05:07;3.45;;;1.25;;
72728;SDS011;60843;52.062;4.508;2022-07-23T09:07:37;5.13;;;1.63;;
72728;SDS011;60843;52.062;4.508;2022-07-23T09:10:07;5.97;;;1.45;;
72728;SDS011;60843;52.062;4.508;2022-07-23T09:12:34;7.35;;;1.65;;
72728;SDS011;60843;52.062;4.508;2022-07-23T09:15:07;4.85;;;1.60;;
72728;SDS011;60843;52.062;4.508;2022-07-23T09:17:37;3.63;;;1.52;;
72728;SDS011;60843;52.062;4.508;2022-07-23T09:20:11;4.30;;;1.55;;
72728;SDS011;60843;52.062;4.508;2022-07-23T09:22:45;3.65;;;1.50;;
72728;SDS011;60843;52.062;4.508;2022-07-23T09:25:17;5.75;;;1.80;;
72728;SDS011;60843;52.062;4.508;2022-07-23T09:30:19;3.17;;;1.35;;
72728;SDS011;60843;52.062;4.508;2022-07-23T09:33:05;3.97;;;1.20;;
72728;SDS011;60843;52.062;4.508;2022-07-23T09:38:20;3.83;;;1.25;;
72728;SDS011;60843;52.062;4.508;2022-07-23T09:43:34;2.75;;;1.05;;
72728;SDS011;60843;52.062;4.508;2022-07-23T09:46:18;3.22;;;1.10;;
72728;SDS011;60843;52.062;4.508;2022-07-23T09:48:51;2.28;;;1.25;;
72728;SDS011;60843;52.062;4.508;2022-07-23T09:51:23;2.40;;;1.30;;
72728;SDS011;60843;52.062;4.508;2022-07-23T09:54:01;4.90;;;1.77;;
72728;SDS011;60843;52.062;4.508;2022-07-23T09:56:27;3.72;;;1.30;;
72728;SDS011;60843;52.062;4.508;2022-07-23T09:58:53;1.85;;;1.10;;
72728;SDS011;60843;52.062;4.508;2022-07-23T10:01:38;3.53;;;1.55;;
72728;SDS011;60843;52.062;4.508;2022-07-23T10:04:04;2.63;;;1.30;;
72728;SDS011;60843;52.062;4.508;2022-07-23T10:06:31;6.75;;;1.42;;
72728;SDS011;60843;52.062;4.508;2022-07-23T10:08:58;4.72;;;1.25;;
72728;SDS011;60843;52.062;4.508;2022-07-23T10:11:23;3.55;;;1.33;;
72728;SDS011;60843;52.062;4.508;2022-07-23T10:13:49;3.38;;;1.55;;
72728;SDS011;60843;52.062;4.508;2022-07-23T10:16:17;3.50;;;1.52;;
72728;SDS011;60843;52.062;4.508;2022-07-23T10:18:43;6.72;;;1.52;;
72728;SDS011;60843;52.062;4.508;2022-07-23T10:21:08;2.75;;;1.65;;
72728;SDS011;60843;52.062;4.508;2022-07-23T10:23:39;3.85;;;1.60;;
72728;SDS011;60843;52.062;4.508;2022-07-23T10:28:56;2.38;;;1.50;;
72728;SDS011;60843;52.062;4.508;2022-07-23T10:34:25;5.47;;;1.90;;
72728;SDS011;60843;52.062;4.508;2022-07-23T10:40:16;5.95;;;1.65;;
72728;SDS011;60843;52.062;4.508;2022-07-23T10:42:46;2.63;;;1.20;;
72728;SDS011;60843;52.062;4.508;2022-07-23T10:47:52;2.90;;;1.20;;
72728;SDS011;60843;52.062;4.508;2022-07-23T10:57:59;2.47;;;1.97;;
72728;SDS011;60843;52.062;4.508;2022-07-23T11:00:26;6.18;;;1.67;;
72728;SDS011;60843;52.062;4.508;2022-07-23T11:05:25;4.25;;;1.70;;
72728;SDS011;60843;52.062;4.508;2022-07-23T11:16:38;4.93;;;1.73;;
72728;SDS011;60843;52.062;4.508;2022-07-23T11:32:04;5.60;;;1.70;;
72728;SDS011;60843;52.062;4.508;2022-07-23T11:34:34;2.67;;;1.52;;
72728;SDS011;60843;52.062;4.508;2022-07-23T11:37:01;3.72;;;1.80;;
72728;SDS011;60843;52.062;4.508;2022-07-23T11:39:28;4.82;;;1.60;;
72728;SDS011;60843;52.062;4.508;2022-07-23T11:41:54;2.97;;;1.52;;
72728;SDS011;60843;52.062;4.508;2022-07-23T11:44:34;2.78;;;1.20;;
72728;SDS011;60843;52.062;4.508;2022-07-23T11:47:01;4.43;;;1.50;;
72728;SDS011;60843;52.062;4.508;2022-07-23T11:49:34;2.20;;;1.50;;
72728;SDS011;60843;52.062;4.508;2022-07-23T11:54:33;3.08;;;1.55;;
72728;SDS011;60843;52.062;4.508;2022-07-23T11:57:00;4.13;;;1.65;;
72728;SDS011;60843;52.062;4.508;2022-07-23T11:59:26;3.60;;;1.60;;
72728;SDS011;60843;52.062;4.508;2022-07-23T12:01:58;1.50;;;1.20;;
72728;SDS011;60843;52.062;4.508;2022-07-23T12:04:46;2.83;;;1.60;;
72728;SDS011;60843;52.062;4.508;2022-07-23T12:10:04;3.00;;;1.30;;
72728;SDS011;60843;52.062;4.508;2022-07-23T12:12:35;5.45;;;2.10;;
72728;SDS011;60843;52.062;4.508;2022-07-23T12:15:02;2.70;;;1.45;;
72728;SDS011;60843;52.062;4.508;2022-07-23T12:17:29;4.13;;;1.80;;
72728;SDS011;60843;52.062;4.508;2022-07-23T12:19:57;2.65;;;1.42;;
72728;SDS011;60843;52.062;4.508;2022-07-23T12:22:40;3.85;;;1.67;;
72728;SDS011;60843;52.062;4.508;2022-07-23T12:25:18;2.63;;;1.20;;
72728;SDS011;60843;52.062;4.508;2022-07-23T12:27:45;1.55;;;1.10;;
72728;SDS011;60843;52.062;4.508;2022-07-23T12:32:46;1.75;;;1.10;;
72728;SDS011;60843;52.062;4.508;2022-07-23T12:35:12;5.80;;;1.30;;
72728;SDS011;60843;52.062;4.508;2022-07-23T12:37:39;2.10;;;1.20;;
72728;SDS011;60843;52.062;4.508;2022-07-23T12:42:52;1.67;;;1.23;;
72728;SDS011;60843;52.062;4.508;2022-07-23T12:45:25;3.30;;;1.23;;
72728;SDS011;60843;52.062;4.508;2022-07-23T12:50:37;2.75;;;1.10;;
72728;SDS011;60843;52.062;4.508;2022-07-23T12:53:04;3.25;;;1.20;;
72728;SDS011;60843;52.062;4.508;2022-07-23T12:55:40;1.95;;;1.20;;
72728;SDS011;60843;52.062;4.508;2022-07-23T12:58:07;2.45;;;1.05;;
72728;SDS011;60843;52.062;4.508;2022-07-23T13:03:31;4.22;;;1.40;;
72728;SDS011;60843;52.062;4.508;2022-07-23T13:05:59;1.95;;;1.20;;
72728;SDS011;60843;52.062;4.508;2022-07-23T13:08:26;4.82;;;1.73;;
72728;SDS011;60843;52.062;4.508;2022-07-23T13:10:53;4.57;;;1.48;;
72728;SDS011;60843;52.062;4.508;2022-07-23T13:13:26;2.17;;;1.58;;
72728;SDS011;60843;52.062;4.508;2022-07-23T13:15:53;4.40;;;1.50;;
72728;SDS011;60843;52.062;4.508;2022-07-23T13:18:19;3.88;;;1.40;;
72728;SDS011;60843;52.062;4.508;2022-07-23T13:20:45;5.65;;;1.52;;
72728;SDS011;60843;52.062;4.508;2022-07-23T13:23:11;3.58;;;1.60;;
72728;SDS011;60843;52.062;4.508;2022-07-23T13:25:37;6.25;;;1.58;;
72728;SDS011;60843;52.062;4.508;2022-07-23T13:28:03;6.15;;;1.30;;
72728;SDS011;60843;52.062;4.508;2022-07-23T13:30:29;4.03;;;1.70;;
72728;SDS011;60843;52.062;4.508;2022-07-23T13:32:54;4.18;;;1.45;;
72728;SDS011;60843;52.062;4.508;2022-07-23T13:35:19;5.82;;;1.77;;
72728;SDS011;60843;52.062;4.508;2022-07-23T13:37:45;3.88;;;1.50;;
72728;SDS011;60843;52.062;4.508;2022-07-23T13:40:10;4.30;;;1.50;;
72728;SDS011;60843;52.062;4.508;2022-07-23T13:42:36;7.00;;;1.90;;
72728;SDS011;60843;52.062;4.508;2022-07-23T13:45:03;4.28;;;1.60;;
72728;SDS011;60843;52.062;4.508;2022-07-23T13:47:30;3.45;;;1.63;;
72728;SDS011;60843;52.062;4.508;2022-07-23T13:49:55;2.83;;;1.30;;
72728;SDS011;60843;52.062;4.508;2022-07-23T13:52:21;5.30;;;1.75;;
72728;SDS011;60843;52.062;4.508;2022-07-23T13:54:46;3.53;;;1.70;;
72728;SDS011;60843;52.062;4.508;2022-07-23T13:57:12;9.88;;;2.65;;
72728;SDS011;60843;52.062;4.508;2022-07-23T13:59:37;3.97;;;1.73;;
72728;SDS011;60843;52.062;4.508;2022-07-23T14:02:03;6.93;;;1.70;;
72728;SDS011;60843;52.062;4.508;2022-07-23T14:04:29;6.18;;;1.90;;
72728;SDS011;60843;52.062;4.508;2022-07-23T14:06:55;5.63;;;1.50;;
72728;SDS011;60843;52.062;4.508;2022-07-23T14:09:20;4.63;;;1.73;;
72728;SDS011;60843;52.062;4.508;2022-07-23T14:11:46;2.30;;;1.60;;
72728;SDS011;60843;52.062;4.508;2022-07-23T14:14:12;3.70;;;1.75;;
72728;SDS011;60843;52.062;4.508;2022-07-23T14:16:37;4.80;;;2.03;;
72728;SDS011;60843;52.062;4.508;2022-07-23T14:19:03;3.38;;;1.80;;
72728;SDS011;60843;52.062;4.508;2022-07-23T14:21:28;4.57;;;1.73;;
72728;SDS011;60843;52.062;4.508;2022-07-23T14:23:54;4.90;;;2.00;;
72728;SDS011;60843;52.062;4.508;2022-07-23T14:26:20;4.63;;;1.98;;
72728;SDS011;60843;52.062;4.508;2022-07-23T14:28:45;5.13;;;1.65;;
72728;SDS011;60843;52.062;4.508;2022-07-23T14:31:11;5.65;;;2.28;;
72728;SDS011;60843;52.062;4.508;2022-07-23T14:33:36;4.45;;;1.95;;
72728;SDS011;60843;52.062;4.508;2022-07-23T14:36:02;4.18;;;1.92;;
72728;SDS011;60843;52.062;4.508;2022-07-23T14:38:27;6.05;;;2.10;;
72728;SDS011;60843;52.062;4.508;2022-07-23T14:40:55;3.33;;;1.55;;
72728;SDS011;60843;52.062;4.508;2022-07-23T14:43:21;7.07;;;1.98;;
72728;SDS011;60843;52.062;4.508;2022-07-23T14:45:46;3.90;;;2.13;;
72728;SDS011;60843;52.062;4.508;2022-07-23T14:48:12;10.70;;;2.38;;
72728;SDS011;60843;52.062;4.508;2022-07-23T14:50:37;5.17;;;2.03;;
72728;SDS011;60843;52.062;4.508;2022-07-23T14:53:03;5.35;;;2.00;;
72728;SDS011;60843;52.062;4.508;2022-07-23T14:55:30;4.80;;;1.57;;
72728;SDS011;60843;52.062;4.508;2022-07-23T14:57:58;4.05;;;1.90;;
72728;SDS011;60843;52.062;4.508;2022-07-23T15:00:24;2.95;;;1.63;;
72728;SDS011;60843;52.062;4.508;2022-07-23T15:02:50;5.35;;;2.20;;
72728;SDS011;60843;52.062;4.508;2022-07-23T15:05:16;3.20;;;1.67;;
72728;SDS011;60843;52.062;4.508;2022-07-23T15:07:42;3.20;;;1.60;;
72728;SDS011;60843;52.062;4.508;2022-07-23T15:10:07;2.42;;;1.70;;
72728;SDS011;60843;52.062;4.508;2022-07-23T15:12:33;3.50;;;1.50;;
72728;SDS011;60843;52.062;4.508;2022-07-23T15:14:58;5.10;;;2.33;;
72728;SDS011;60843;52.062;4.508;2022-07-23T15:17:24;3.22;;;1.73;;
72728;SDS011;60843;52.062;4.508;2022-07-23T15:19:49;3.45;;;1.50;;
72728;SDS011;60843;52.062;4.508;2022-07-23T15:22:16;4.93;;;1.67;;
72728;SDS011;60843;52.062;4.508;2022-07-23T15:24:41;4.25;;;2.00;;
72728;SDS011;60843;52.062;4.508;2022-07-23T15:27:07;5.20;;;1.73;;
72728;SDS011;60843;52.062;4.508;2022-07-23T15:29:32;4.53;;;1.85;;
72728;SDS011;60843;52.062;4.508;2022-07-23T15:31:57;4.20;;;1.53;;
72728;SDS011;60843;52.062;4.508;2022-07-23T15:34:23;5.32;;;2.35;;
72728;SDS011;60843;52.062;4.508;2022-07-23T15:36:49;3.53;;;2.00;;
72728;SDS011;60843;52.062;4.508;2022-07-23T15:39:14;3.97;;;1.90;;
72728;SDS011;60843;52.062;4.508;2022-07-23T15:41:39;3.90;;;1.92;;
72728;SDS011;60843;52.062;4.508;2022-07-23T15:44:05;3.47;;;1.90;;
72728;SDS011;60843;52.062;4.508;2022-07-23T15:46:30;10.77;;;4.05;;
72728;SDS011;60843;52.062;4.508;2022-07-23T15:48:56;7.07;;;2.07;;
72728;SDS011;60843;52.062;4.508;2022-07-23T15:51:21;5.70;;;2.00;;
72728;SDS011;60843;52.062;4.508;2022-07-23T15:53:47;4.65;;;2.47;;
72728;SDS011;60843;52.062;4.508;2022-07-23T15:56:12;3.33;;;1.87;;
72728;SDS011;60843;52.062;4.508;2022-07-23T15:58:38;4.38;;;2.55;;
72728;SDS011;60843;52.062;4.508;2022-07-23T16:01:03;4.53;;;2.20;;
72728;SDS011;60843;52.062;4.508;2022-07-23T16:03:32;5.85;;;2.22;;